Buoy 32974

sailwx.info

Track history (hours):
 
Tides and Currents Weather Stations Pressure Air Temp Water Temp Dewpoint Dewpoint Depression Visibility Wind Speed Wind Dir Waves Ship Positions

Drifting buoy 32974

Last reported at 2018-Jan-18 06:00 UTC. Time now 2018-Jan-18 07:53 UTC.
Position N 14°04' W 157°44'.

Water temperature 26.2 ° C

Date/timePositionNaut miles runAvg speedWind from/ knotsBaromVisibWave heightAir tempDewpointWater temp
2018-Jan-18 06:00N 14°04' W 157°44'1 0.8 26.2
2018-Jan-18 05:00N 14°04' W 157°43'1 0.8 26.2
2018-Jan-18 04:00N 14°03' W 157°43'2 2.3 26.2
2018-Jan-18 03:00N 14°03' W 157°40'4 3.8 26.3
2018-Jan-18 02:00N 14°01' W 157°37'4 3.8 26.3
2018-Jan-18 01:00N 14°03' W 157°40'4 1.1 26.3
2018-Jan-17 21:00N 14°01' W 157°37'1 0.6 26.3
2018-Jan-17 20:00N 14°01' W 157°36'1 1.2 26.3
2018-Jan-17 19:00N 14°01' W 157°35'1 1.3 26.3
2018-Jan-17 18:00N 13°59' W 157°34'1 0.6 26.3
2018-Jan-17 17:00N 13°59' W 157°34'2 1.7 26.3
2018-Jan-17 16:00N 13°59' W 157°32'0 0.0 26.3
2018-Jan-17 15:00N 13°59' W 157°32'1 1.2 26.3
2018-Jan-17 14:00N 13°59' W 157°31'1 0.6 26.3
2018-Jan-17 13:00N 13°59' W 157°31'0 0.0 26.3
2018-Jan-17 12:00N 13°59' W 157°31'3 0.7 26.3
2018-Jan-17 08:00N 13°58' W 157°29'0 0.0 26.3
2018-Jan-17 07:00N 13°58' W 157°29'1 1.3 26.3
2018-Jan-17 06:00N 13°58' W 157°28'1 0.8 26.3
2018-Jan-17 05:00N 13°58' W 157°27'1 0.6 26.4
2018-Jan-17 04:00N 13°58' W 157°27'1 0.8 26.4
2018-Jan-17 03:00N 13°58' W 157°26'2 1.8 26.4
2018-Jan-17 02:00N 13°58' W 157°25'0 0.0 26.4
2018-Jan-17 01:00N 13°58' W 157°25'1 0.6 26.4
2018-Jan-17 00:00N 13°58' W 157°24'1 0.1 26.4
2018-Jan-16 20:00N 13°58' W 157°23'5 0.4 26.4
2018-Jan-16 07:00N 13°55' W 157°19'1 0.6 26.4
2018-Jan-16 06:00N 13°55' W 157°19'1 0.8 26.4
2018-Jan-16 05:00N 13°55' W 157°19'1 1.3 26.4
2018-Jan-16 04:00N 13°54' W 157°17'0 0.0 26.4
2018-Jan-16 03:00N 13°54' W 157°17'0 0.0 26.4
2018-Jan-16 02:00N 13°54' W 157°17'2 1.7 26.4
2018-Jan-16 01:00N 13°54' W 157°16'0 0.0 26.4
2018-Jan-16 00:00N 13°54' W 157°16'1 0.4 26.4
2018-Jan-15 21:00N 13°54' W 157°14'1 0.6 26.4
2018-Jan-15 20:00N 13°53' W 157°14'2 0.5 26.4
2018-Jan-15 15:00N 13°53' W 157°12'1 0.8 26.4
2018-Jan-15 14:00N 13°53' W 157°11'0 0.0 26.4
2018-Jan-15 13:00N 13°53' W 157°11'0 0.0 26.4
2018-Jan-15 12:00N 13°53' W 157°11'2 0.5 26.4
2018-Jan-15 08:00N 13°52' W 157°10'1 1.2 26.4
2018-Jan-15 07:00N 13°52' W 157°08'1 0.6 26.4
2018-Jan-15 06:00N 13°52' W 157°08'0 0.0 26.4
2018-Jan-15 05:00N 13°52' W 157°08'1 0.6 26.4
2018-Jan-15 04:00N 13°52' W 157°07'1 0.6 26.4
2018-Jan-15 03:00N 13°52' W 157°07'0 0.0 26.4
2018-Jan-15 02:00N 13°52' W 157°07'1 1.2 26.4
2018-Jan-15 01:00N 13°52' W 157°05'0 0.0 26.4
2018-Jan-15 00:00N 13°52' W 157°05'2 0.8 26.4
2018-Jan-14 21:00N 13°52' W 157°03'1 0.3 26.4
2018-Jan-14 19:00N 13°52' W 157°02'1 0.6 26.3
2018-Jan-14 18:00N 13°52' W 157°02'1 0.8 26.3
2018-Jan-14 17:00N 13°52' W 157°02'0 0.0 26.3
2018-Jan-14 16:00N 13°52' W 157°02'0 0.0 26.3
2018-Jan-14 15:00N 13°52' W 157°02'1 0.6 26.3
2018-Jan-14 14:00N 13°52' W 157°02'0 0.0 26.3
2018-Jan-14 13:00N 13°52' W 157°02'2 0.5 26.3
2018-Jan-14 09:00N 13°50' W 157°00'1 0.6 26.3
2018-Jan-14 08:00N 13°50' W 156°59'1 0.6 26.3
2018-Jan-14 07:00N 13°50' W 156°59'1 0.6 26.3
2018-Jan-14 06:00N 13°50' W 156°58'1 0.8 26.3
2018-Jan-14 05:00N 13°51' W 156°58'1 0.6 26.3
2018-Jan-14 04:00N 13°51' W 156°57'0 0.0 26.4
2018-Jan-14 03:00N 13°51' W 156°57'0 0.0 26.4
2018-Jan-14 02:00N 13°51' W 156°57'1 1.2 26.4
2018-Jan-14 01:00N 13°51' W 156°56'0 0.0 26.4
2018-Jan-14 00:00N 13°51' W 156°56'9 0.3 26.4
2018-Jan-12 15:00N 13°53' W 156°47'1 0.6 26.2
2018-Jan-12 14:00N 13°53' W 156°47'0 0.0 26.2
2018-Jan-12 13:00N 13°53' W 156°47'1 0.3 26.2
2018-Jan-12 08:00N 13°53' W 156°46'1 0.6 26.2
2018-Jan-12 07:00N 13°53' W 156°45'1 0.6 26.2
2018-Jan-12 06:00N 13°53' W 156°44'0 0.0 26.2
2018-Jan-12 05:00N 13°53' W 156°44'0 0.0 26.2
2018-Jan-12 04:00N 13°53' W 156°44'1 0.8 26.2
2018-Jan-12 03:00N 13°52' W 156°44'1 0.6 26.2
2018-Jan-12 02:00N 13°52' W 156°43'0 0.0 26.2
2018-Jan-12 01:00N 13°52' W 156°43'2 0.3 26.2
2018-Jan-11 20:00N 13°52' W 156°41'1 0.6 26.2
2018-Jan-11 19:00N 13°52' W 156°41'1 0.6 26.2
2018-Jan-11 18:00N 13°52' W 156°41'1 0.6 26.2
2018-Jan-11 17:00N 13°51' W 156°41'1 1.2 26.1
2018-Jan-11 16:00N 13°51' W 156°40'0 0.0 26.1
2018-Jan-11 15:00N 13°51' W 156°40'0 0.0 26.1
2018-Jan-11 14:00N 13°51' W 156°40'0 0.0 26.1
2018-Jan-11 13:00N 13°51' W 156°40'4 0.7 26.2
2018-Jan-11 08:00N 13°50' W 156°36'1 1.2 26.2
2018-Jan-11 07:00N 13°50' W 156°35'0 0.0 26.2
2018-Jan-11 06:00N 13°50' W 156°35'1 0.6 26.2
2018-Jan-11 05:00N 13°50' W 156°35'1 0.6 26.2
2018-Jan-11 04:00N 13°50' W 156°35'1 0.6 26.3
2018-Jan-11 03:00N 13°50' W 156°34'0 0.0 26.3
2018-Jan-11 02:00N 13°50' W 156°34'2 2.1 26.3
2018-Jan-11 01:00N 13°49' W 156°32'0 0.0 26.4
2018-Jan-10 21:00N 13°49' W 156°32'1 0.8 26.2
2018-Jan-10 20:00N 13°48' W 156°32'1 0.8 26.2
2018-Jan-10 19:00N 13°47' W 156°31'1 0.8 26.2
2018-Jan-10 18:00N 13°47' W 156°31'0 0.0 26.2
2018-Jan-10 17:00N 13°47' W 156°31'1 1.3 26.1
2018-Jan-10 16:00N 13°46' W 156°29'1 0.8 26.1
2018-Jan-10 15:00N 13°47' W 156°30'0 0.0 26.2
2018-Jan-10 14:00N 13°47' W 156°30'1 1.3 26.1
2018-Jan-10 13:00N 13°46' W 156°29'4 0.7 26.2
2018-Jan-10 08:00N 13°46' W 156°25'1 0.6 26.2
2018-Jan-10 07:00N 13°46' W 156°25'0 0.0 26.2
2018-Jan-10 06:00N 13°46' W 156°25'1 0.6 26.2
2018-Jan-10 05:00N 13°46' W 156°24'1 0.6 26.2
2018-Jan-10 04:00N 13°46' W 156°23'0 0.0 26.2
2018-Jan-10 03:00N 13°46' W 156°23'2 1.7 26.2
2018-Jan-10 02:00N 13°46' W 156°22'0 0.0 26.2
2018-Jan-10 01:00N 13°46' W 156°22'1 0.3 26.2
2018-Jan-09 20:00N 13°45' W 156°20'1 0.8 26.2
2018-Jan-09 19:00N 13°44' W 156°21'1 1.2 26.2
2018-Jan-09 18:00N 13°44' W 156°20'1 0.6 26.2
2018-Jan-09 17:00N 13°44' W 156°20'1 1.3 26.1
2018-Jan-09 16:00N 13°43' W 156°19'1 0.6 26.1
2018-Jan-09 15:00N 13°44' W 156°19'0 0.0 26.1
2018-Jan-09 14:00N 13°44' W 156°19'1 1.3 26.2
2018-Jan-09 13:00N 13°43' W 156°17'0 0.0 26.2
2018-Jan-09 12:00N 13°43' W 156°17'4 1.3 26.2
2018-Jan-09 09:00N 13°41' W 156°14'0 0.0 26.2
2018-Jan-09 08:00N 13°41' W 156°14'1 0.8 26.2
2018-Jan-09 07:00N 13°40' W 156°14'1 0.8 26.2
2018-Jan-09 06:00N 13°40' W 156°13'0 0.0 26.2
2018-Jan-09 05:00N 13°40' W 156°13'1 0.8 26.2
2018-Jan-09 04:00N 13°40' W 156°13'3 2.6 26.3
2018-Jan-09 03:00N 13°39' W 156°10'1 0.8 26.3
2018-Jan-09 02:00N 13°38' W 156°10'4 1.8 26.3
2018-Jan-09 00:00N 13°38' W 156°06'0 0.0 26.3
2018-Jan-08 21:00N 13°38' W 156°06'1 0.8 26.3
2018-Jan-08 20:00N 13°37' W 156°05'1 1.3 26.3
2018-Jan-08 19:00N 13°38' W 156°04'1 1.3 26.3
2018-Jan-08 18:00N 13°38' W 156°03'2 1.8 26.2
2018-Jan-08 17:00N 13°39' W 156°01'0 0.0 26.2
2018-Jan-08 16:00N 13°39' W 156°01'1 0.8 26.2
2018-Jan-08 15:00N 13°40' W 156°01'1 0.8 26.2
2018-Jan-08 14:00N 13°40' W 156°00'0 0.0 26.2
2018-Jan-08 13:00N 13°40' W 156°00'0 0.0 26.2
2018-Jan-08 12:00N 13°40' W 156°00'3 0.7 26.2
2018-Jan-08 07:00N 13°40' W 155°56'1 0.6 26.2
2018-Jan-08 06:00N 13°41' W 155°56'   26.2
Track history (hours):
 
Tides and Currents Weather Stations Pressure Air Temp Water Temp Dewpoint Dewpoint Depression Visibility Wind Speed Wind Dir Waves Ship Positions

Drifting buoy 32974

Last reported at 2018-Jan-18 06:00 UTC. Time now 2018-Jan-18 07:53 UTC.
Position N 14°04' W 157°44'.

Water temperature 26.2 ° C

Date/timePositionNaut miles runAvg speedWind from/ knotsBaromVisibWave heightAir tempDewpointWater temp
2018-Jan-18 06:00N 14°04' W 157°44'1 0.8 26.2
2018-Jan-18 05:00N 14°04' W 157°43'1 0.8 26.2
2018-Jan-18 04:00N 14°03' W 157°43'2 2.3 26.2
2018-Jan-18 03:00N 14°03' W 157°40'4 3.8 26.3
2018-Jan-18 02:00N 14°01' W 157°37'4 3.8 26.3
2018-Jan-18 01:00N 14°03' W 157°40'4 1.1 26.3
2018-Jan-17 21:00N 14°01' W 157°37'1 0.6 26.3
2018-Jan-17 20:00N 14°01' W 157°36'1 1.2 26.3
2018-Jan-17 19:00N 14°01' W 157°35'1 1.3 26.3
2018-Jan-17 18:00N 13°59' W 157°34'1 0.6 26.3
2018-Jan-17 17:00N 13°59' W 157°34'2 1.7 26.3
2018-Jan-17 16:00N 13°59' W 157°32'0 0.0 26.3
2018-Jan-17 15:00N 13°59' W 157°32'1 1.2 26.3
2018-Jan-17 14:00N 13°59' W 157°31'1 0.6 26.3
2018-Jan-17 13:00N 13°59' W 157°31'0 0.0 26.3
2018-Jan-17 12:00N 13°59' W 157°31'3 0.7 26.3
2018-Jan-17 08:00N 13°58' W 157°29'0 0.0 26.3
2018-Jan-17 07:00N 13°58' W 157°29'1 1.3 26.3
2018-Jan-17 06:00N 13°58' W 157°28'1 0.8 26.3
2018-Jan-17 05:00N 13°58' W 157°27'1 0.6 26.4
2018-Jan-17 04:00N 13°58' W 157°27'1 0.8 26.4
2018-Jan-17 03:00N 13°58' W 157°26'2 1.8 26.4
2018-Jan-17 02:00N 13°58' W 157°25'0 0.0 26.4
2018-Jan-17 01:00N 13°58' W 157°25'1 0.6 26.4
2018-Jan-17 00:00N 13°58' W 157°24'1 0.1 26.4
2018-Jan-16 20:00N 13°58' W 157°23'5 0.4 26.4
2018-Jan-16 07:00N 13°55' W 157°19'1 0.6 26.4
2018-Jan-16 06:00N 13°55' W 157°19'1 0.8 26.4
2018-Jan-16 05:00N 13°55' W 157°19'1 1.3 26.4
2018-Jan-16 04:00N 13°54' W 157°17'0 0.0 26.4
2018-Jan-16 03:00N 13°54' W 157°17'0 0.0 26.4
2018-Jan-16 02:00N 13°54' W 157°17'2 1.7 26.4
2018-Jan-16 01:00N 13°54' W 157°16'0 0.0 26.4
2018-Jan-16 00:00N 13°54' W 157°16'1 0.4 26.4
2018-Jan-15 21:00N 13°54' W 157°14'1 0.6 26.4
2018-Jan-15 20:00N 13°53' W 157°14'2 0.5 26.4
2018-Jan-15 15:00N 13°53' W 157°12'1 0.8 26.4
2018-Jan-15 14:00N 13°53' W 157°11'0 0.0 26.4
2018-Jan-15 13:00N 13°53' W 157°11'0 0.0 26.4
2018-Jan-15 12:00N 13°53' W 157°11'2 0.5 26.4
2018-Jan-15 08:00N 13°52' W 157°10'1 1.2 26.4
2018-Jan-15 07:00N 13°52' W 157°08'1 0.6 26.4
2018-Jan-15 06:00N 13°52' W 157°08'0 0.0 26.4
2018-Jan-15 05:00N 13°52' W 157°08'1 0.6 26.4
2018-Jan-15 04:00N 13°52' W 157°07'1 0.6 26.4
2018-Jan-15 03:00N 13°52' W 157°07'0 0.0 26.4
2018-Jan-15 02:00N 13°52' W 157°07'1 1.2 26.4
2018-Jan-15 01:00N 13°52' W 157°05'0 0.0 26.4
2018-Jan-15 00:00N 13°52' W 157°05'2 0.8 26.4
2018-Jan-14 21:00N 13°52' W 157°03'1 0.3 26.4
2018-Jan-14 19:00N 13°52' W 157°02'1 0.6 26.3
2018-Jan-14 18:00N 13°52' W 157°02'1 0.8 26.3
2018-Jan-14 17:00N 13°52' W 157°02'0 0.0 26.3
2018-Jan-14 16:00N 13°52' W 157°02'0 0.0 26.3
2018-Jan-14 15:00N 13°52' W 157°02'1 0.6 26.3
2018-Jan-14 14:00N 13°52' W 157°02'0 0.0 26.3
2018-Jan-14 13:00N 13°52' W 157°02'2 0.5 26.3
2018-Jan-14 09:00N 13°50' W 157°00'1 0.6 26.3
2018-Jan-14 08:00N 13°50' W 156°59'1 0.6 26.3
2018-Jan-14 07:00N 13°50' W 156°59'1 0.6 26.3
2018-Jan-14 06:00N 13°50' W 156°58'1 0.8 26.3
2018-Jan-14 05:00N 13°51' W 156°58'1 0.6 26.3
2018-Jan-14 04:00N 13°51' W 156°57'0 0.0 26.4
2018-Jan-14 03:00N 13°51' W 156°57'0 0.0 26.4
2018-Jan-14 02:00N 13°51' W 156°57'1 1.2 26.4
2018-Jan-14 01:00N 13°51' W 156°56'0 0.0 26.4
2018-Jan-14 00:00N 13°51' W 156°56'9 0.3 26.4
2018-Jan-12 15:00N 13°53' W 156°47'1 0.6 26.2
2018-Jan-12 14:00N 13°53' W 156°47'0 0.0 26.2
2018-Jan-12 13:00N 13°53' W 156°47'1 0.3 26.2
2018-Jan-12 08:00N 13°53' W 156°46'1 0.6 26.2
2018-Jan-12 07:00N 13°53' W 156°45'1 0.6 26.2
2018-Jan-12 06:00N 13°53' W 156°44'0 0.0 26.2
2018-Jan-12 05:00N 13°53' W 156°44'0 0.0 26.2
2018-Jan-12 04:00N 13°53' W 156°44'1 0.8 26.2
2018-Jan-12 03:00N 13°52' W 156°44'1 0.6 26.2
2018-Jan-12 02:00N 13°52' W 156°43'0 0.0 26.2
2018-Jan-12 01:00N 13°52' W 156°43'2 0.3 26.2
2018-Jan-11 20:00N 13°52' W 156°41'1 0.6 26.2
2018-Jan-11 19:00N 13°52' W 156°41'1 0.6 26.2
2018-Jan-11 18:00N 13°52' W 156°41'1 0.6 26.2
2018-Jan-11 17:00N 13°51' W 156°41'1 1.2 26.1
2018-Jan-11 16:00N 13°51' W 156°40'0 0.0 26.1
2018-Jan-11 15:00N 13°51' W 156°40'0 0.0 26.1
2018-Jan-11 14:00N 13°51' W 156°40'0 0.0 26.1
2018-Jan-11 13:00N 13°51' W 156°40'4 0.7 26.2
2018-Jan-11 08:00N 13°50' W 156°36'1 1.2 26.2
2018-Jan-11 07:00N 13°50' W 156°35'0 0.0 26.2
2018-Jan-11 06:00N 13°50' W 156°35'1 0.6 26.2
2018-Jan-11 05:00N 13°50' W 156°35'1 0.6 26.2
2018-Jan-11 04:00N 13°50' W 156°35'1 0.6 26.3
2018-Jan-11 03:00N 13°50' W 156°34'0 0.0 26.3
2018-Jan-11 02:00N 13°50' W 156°34'2 2.1 26.3
2018-Jan-11 01:00N 13°49' W 156°32'0 0.0 26.4
2018-Jan-10 21:00N 13°49' W 156°32'1 0.8 26.2
2018-Jan-10 20:00N 13°48' W 156°32'1 0.8 26.2
2018-Jan-10 19:00N 13°47' W 156°31'1 0.8 26.2
2018-Jan-10 18:00N 13°47' W 156°31'0 0.0 26.2
2018-Jan-10 17:00N 13°47' W 156°31'1 1.3 26.1
2018-Jan-10 16:00N 13°46' W 156°29'1 0.8 26.1
2018-Jan-10 15:00N 13°47' W 156°30'0 0.0 26.2
2018-Jan-10 14:00N 13°47' W 156°30'1 1.3 26.1
2018-Jan-10 13:00N 13°46' W 156°29'4 0.7 26.2
2018-Jan-10 08:00N 13°46' W 156°25'1 0.6 26.2
2018-Jan-10 07:00N 13°46' W 156°25'0 0.0 26.2
2018-Jan-10 06:00N 13°46' W 156°25'1 0.6 26.2
2018-Jan-10 05:00N 13°46' W 156°24'1 0.6 26.2
2018-Jan-10 04:00N 13°46' W 156°23'0 0.0 26.2
2018-Jan-10 03:00N 13°46' W 156°23'2 1.7 26.2
2018-Jan-10 02:00N 13°46' W 156°22'0 0.0 26.2
2018-Jan-10 01:00N 13°46' W 156°22'1 0.3 26.2
2018-Jan-09 20:00N 13°45' W 156°20'1 0.8 26.2
2018-Jan-09 19:00N 13°44' W 156°21'1 1.2 26.2
2018-Jan-09 18:00N 13°44' W 156°20'1 0.6 26.2
2018-Jan-09 17:00N 13°44' W 156°20'1 1.3 26.1
2018-Jan-09 16:00N 13°43' W 156°19'1 0.6 26.1
2018-Jan-09 15:00N 13°44' W 156°19'0 0.0 26.1
2018-Jan-09 14:00N 13°44' W 156°19'1 1.3 26.2
2018-Jan-09 13:00N 13°43' W 156°17'0 0.0 26.2
2018-Jan-09 12:00N 13°43' W 156°17'4 1.3 26.2
2018-Jan-09 09:00N 13°41' W 156°14'0 0.0 26.2
2018-Jan-09 08:00N 13°41' W 156°14'1 0.8 26.2
2018-Jan-09 07:00N 13°40' W 156°14'1 0.8 26.2
2018-Jan-09 06:00N 13°40' W 156°13'0 0.0 26.2
2018-Jan-09 05:00N 13°40' W 156°13'1 0.8 26.2
2018-Jan-09 04:00N 13°40' W 156°13'3 2.6 26.3
2018-Jan-09 03:00N 13°39' W 156°10'1 0.8 26.3
2018-Jan-09 02:00N 13°38' W 156°10'4 1.8 26.3
2018-Jan-09 00:00N 13°38' W 156°06'0 0.0 26.3
2018-Jan-08 21:00N 13°38' W 156°06'1 0.8 26.3
2018-Jan-08 20:00N 13°37' W 156°05'1 1.3 26.3
2018-Jan-08 19:00N 13°38' W 156°04'1 1.3 26.3
2018-Jan-08 18:00N 13°38' W 156°03'2 1.8 26.2
2018-Jan-08 17:00N 13°39' W 156°01'0 0.0 26.2
2018-Jan-08 16:00N 13°39' W 156°01'1 0.8 26.2
2018-Jan-08 15:00N 13°40' W 156°01'1 0.8 26.2
2018-Jan-08 14:00N 13°40' W 156°00'0 0.0 26.2
2018-Jan-08 13:00N 13°40' W 156°00'0 0.0 26.2
2018-Jan-08 12:00N 13°40' W 156°00'3 0.7 26.2
2018-Jan-08 07:00N 13°40' W 155°56'1 0.6 26.2
2018-Jan-08 06:00N 13°41' W 155°56'   26.2

Dump ship's entire track history